sensor_id;sensor_type;location;lat;lon;timestamp;P1;durP1;ratioP1;P2;durP2;ratioP2
67715;SDS011;54508;43.238;25.306;2023-10-08T00:02:08;2.05;;;1.77;;
67715;SDS011;54508;43.238;25.306;2023-10-08T00:04:39;2.00;;;1.80;;
67715;SDS011;54508;43.238;25.306;2023-10-08T00:07:05;2.42;;;1.75;;
67715;SDS011;54508;43.238;25.306;2023-10-08T00:09:32;2.28;;;1.77;;
67715;SDS011;54508;43.238;25.306;2023-10-08T00:12:01;2.15;;;1.70;;
67715;SDS011;54508;43.238;25.306;2023-10-08T00:14:27;4.13;;;2.20;;
67715;SDS011;54508;43.238;25.306;2023-10-08T00:16:53;2.50;;;1.77;;
67715;SDS011;54508;43.238;25.306;2023-10-08T00:19:19;2.00;;;1.60;;
67715;SDS011;54508;43.238;25.306;2023-10-08T00:21:46;3.53;;;2.00;;
67715;SDS011;54508;43.238;25.306;2023-10-08T00:24:13;3.73;;;1.80;;
67715;SDS011;54508;43.238;25.306;2023-10-08T00:26:39;2.55;;;1.90;;
67715;SDS011;54508;43.238;25.306;2023-10-08T00:29:08;2.13;;;1.83;;
67715;SDS011;54508;43.238;25.306;2023-10-08T00:31:44;2.13;;;1.90;;
67715;SDS011;54508;43.238;25.306;2023-10-08T00:34:14;2.13;;;1.83;;
67715;SDS011;54508;43.238;25.306;2023-10-08T00:36:40;2.42;;;2.00;;
67715;SDS011;54508;43.238;25.306;2023-10-08T00:39:06;3.83;;;2.10;;
67715;SDS011;54508;43.238;25.306;2023-10-08T00:41:40;2.75;;;1.90;;
67715;SDS011;54508;43.238;25.306;2023-10-08T00:44:09;2.40;;;1.70;;
67715;SDS011;54508;43.238;25.306;2023-10-08T00:46:41;2.78;;;1.65;;
67715;SDS011;54508;43.238;25.306;2023-10-08T00:49:13;2.55;;;1.90;;
67715;SDS011;54508;43.238;25.306;2023-10-08T00:51:54;2.95;;;2.15;;
67715;SDS011;54508;43.238;25.306;2023-10-08T00:54:33;2.78;;;1.98;;
67715;SDS011;54508;43.238;25.306;2023-10-08T00:56:59;3.92;;;2.03;;
67715;SDS011;54508;43.238;25.306;2023-10-08T00:59:29;2.67;;;1.98;;
67715;SDS011;54508;43.238;25.306;2023-10-08T01:02:02;2.67;;;1.90;;
67715;SDS011;54508;43.238;25.306;2023-10-08T01:04:33;2.97;;;2.10;;
67715;SDS011;54508;43.238;25.306;2023-10-08T01:07:00;2.85;;;1.90;;
67715;SDS011;54508;43.238;25.306;2023-10-08T01:09:37;2.70;;;1.90;;
67715;SDS011;54508;43.238;25.306;2023-10-08T01:15:02;2.75;;;2.17;;
67715;SDS011;54508;43.238;25.306;2023-10-08T01:18:00;2.47;;;1.75;;
67715;SDS011;54508;43.238;25.306;2023-10-08T01:20:28;2.30;;;1.90;;
67715;SDS011;54508;43.238;25.306;2023-10-08T01:23:06;4.25;;;2.00;;
67715;SDS011;54508;43.238;25.306;2023-10-08T01:25:38;2.15;;;1.90;;
67715;SDS011;54508;43.238;25.306;2023-10-08T01:28:07;2.33;;;1.77;;
67715;SDS011;54508;43.238;25.306;2023-10-08T01:30:40;1.97;;;1.80;;
67715;SDS011;54508;43.238;25.306;2023-10-08T01:33:11;2.67;;;1.95;;
67715;SDS011;54508;43.238;25.306;2023-10-08T01:35:39;2.35;;;1.77;;
67715;SDS011;54508;43.238;25.306;2023-10-08T01:38:06;2.25;;;1.70;;
67715;SDS011;54508;43.238;25.306;2023-10-08T01:40:33;3.50;;;2.03;;
67715;SDS011;54508;43.238;25.306;2023-10-08T01:42:59;2.73;;;1.67;;
67715;SDS011;54508;43.238;25.306;2023-10-08T01:45:29;3.20;;;2.03;;
67715;SDS011;54508;43.238;25.306;2023-10-08T01:47:55;2.30;;;1.80;;
67715;SDS011;54508;43.238;25.306;2023-10-08T01:50:22;2.05;;;1.70;;
67715;SDS011;54508;43.238;25.306;2023-10-08T01:52:50;2.30;;;1.90;;
67715;SDS011;54508;43.238;25.306;2023-10-08T01:55:19;2.53;;;1.45;;
67715;SDS011;54508;43.238;25.306;2023-10-08T01:57:48;2.45;;;1.70;;
67715;SDS011;54508;43.238;25.306;2023-10-08T02:00:16;2.65;;;1.75;;
67715;SDS011;54508;43.238;25.306;2023-10-08T02:02:54;2.78;;;1.73;;
67715;SDS011;54508;43.238;25.306;2023-10-08T02:05:22;2.45;;;1.80;;
67715;SDS011;54508;43.238;25.306;2023-10-08T02:07:50;2.80;;;1.50;;
67715;SDS011;54508;43.238;25.306;2023-10-08T02:10:16;2.77;;;1.53;;
67715;SDS011;54508;43.238;25.306;2023-10-08T02:12:41;2.60;;;1.60;;
67715;SDS011;54508;43.238;25.306;2023-10-08T02:15:07;2.78;;;1.58;;
67715;SDS011;54508;43.238;25.306;2023-10-08T02:17:33;2.37;;;1.60;;
67715;SDS011;54508;43.238;25.306;2023-10-08T02:19:59;2.40;;;1.63;;
67715;SDS011;54508;43.238;25.306;2023-10-08T02:22:25;3.13;;;1.80;;
67715;SDS011;54508;43.238;25.306;2023-10-08T02:24:50;2.43;;;1.77;;
67715;SDS011;54508;43.238;25.306;2023-10-08T02:27:18;1.75;;;1.50;;
67715;SDS011;54508;43.238;25.306;2023-10-08T02:29:44;2.50;;;1.77;;
67715;SDS011;54508;43.238;25.306;2023-10-08T02:32:09;2.80;;;1.80;;
67715;SDS011;54508;43.238;25.306;2023-10-08T02:34:35;2.47;;;1.70;;
67715;SDS011;54508;43.238;25.306;2023-10-08T02:37:00;2.30;;;1.73;;
67715;SDS011;54508;43.238;25.306;2023-10-08T02:39:28;2.92;;;1.58;;
67715;SDS011;54508;43.238;25.306;2023-10-08T02:41:55;3.13;;;1.83;;
67715;SDS011;54508;43.238;25.306;2023-10-08T02:44:24;2.00;;;1.70;;
67715;SDS011;54508;43.238;25.306;2023-10-08T02:46:49;1.87;;;1.40;;
67715;SDS011;54508;43.238;25.306;2023-10-08T02:49:19;2.65;;;1.70;;
67715;SDS011;54508;43.238;25.306;2023-10-08T02:51:50;3.03;;;2.00;;
67715;SDS011;54508;43.238;25.306;2023-10-08T02:54:19;2.90;;;1.40;;
67715;SDS011;54508;43.238;25.306;2023-10-08T02:56:52;2.17;;;1.50;;
67715;SDS011;54508;43.238;25.306;2023-10-08T02:59:22;2.33;;;1.50;;
67715;SDS011;54508;43.238;25.306;2023-10-08T03:01:48;1.77;;;1.27;;
67715;SDS011;54508;43.238;25.306;2023-10-08T03:04:21;2.10;;;1.58;;
67715;SDS011;54508;43.238;25.306;2023-10-08T03:06:50;2.40;;;1.40;;
67715;SDS011;54508;43.238;25.306;2023-10-08T03:09:19;2.13;;;1.58;;
67715;SDS011;54508;43.238;25.306;2023-10-08T03:11:49;1.85;;;1.30;;
67715;SDS011;54508;43.238;25.306;2023-10-08T03:14:16;2.85;;;1.67;;
67715;SDS011;54508;43.238;25.306;2023-10-08T03:16:51;2.83;;;1.67;;
67715;SDS011;54508;43.238;25.306;2023-10-08T03:19:18;2.20;;;1.50;;
67715;SDS011;54508;43.238;25.306;2023-10-08T03:21:47;3.05;;;1.77;;
67715;SDS011;54508;43.238;25.306;2023-10-08T03:24:17;2.58;;;1.60;;
67715;SDS011;54508;43.238;25.306;2023-10-08T03:26:55;3.05;;;1.85;;
67715;SDS011;54508;43.238;25.306;2023-10-08T03:29:31;2.75;;;1.70;;
67715;SDS011;54508;43.238;25.306;2023-10-08T03:31:57;2.28;;;1.63;;
67715;SDS011;54508;43.238;25.306;2023-10-08T03:34:22;2.08;;;1.50;;
67715;SDS011;54508;43.238;25.306;2023-10-08T03:36:52;1.92;;;1.42;;
67715;SDS011;54508;43.238;25.306;2023-10-08T03:39:25;2.80;;;2.00;;
67715;SDS011;54508;43.238;25.306;2023-10-08T03:42:06;2.50;;;2.00;;
67715;SDS011;54508;43.238;25.306;2023-10-08T03:44:34;2.38;;;1.80;;
67715;SDS011;54508;43.238;25.306;2023-10-08T03:47:02;2.72;;;2.00;;
67715;SDS011;54508;43.238;25.306;2023-10-08T03:49:35;2.40;;;1.77;;
67715;SDS011;54508;43.238;25.306;2023-10-08T03:52:06;2.22;;;1.48;;
67715;SDS011;54508;43.238;25.306;2023-10-08T03:54:32;2.58;;;1.75;;
67715;SDS011;54508;43.238;25.306;2023-10-08T03:57:01;2.90;;;1.70;;
67715;SDS011;54508;43.238;25.306;2023-10-08T03:59:31;3.08;;;2.08;;
67715;SDS011;54508;43.238;25.306;2023-10-08T04:01:59;2.85;;;1.92;;
67715;SDS011;54508;43.238;25.306;2023-10-08T04:04:44;2.33;;;1.90;;
67715;SDS011;54508;43.238;25.306;2023-10-08T04:07:19;2.92;;;2.03;;
67715;SDS011;54508;43.238;25.306;2023-10-08T04:09:58;2.20;;;1.80;;
67715;SDS011;54508;43.238;25.306;2023-10-08T04:12:45;3.00;;;2.10;;
67715;SDS011;54508;43.238;25.306;2023-10-08T04:15:15;4.93;;;2.35;;
67715;SDS011;54508;43.238;25.306;2023-10-08T04:17:41;2.85;;;2.38;;
67715;SDS011;54508;43.238;25.306;2023-10-08T04:20:13;2.50;;;1.70;;
67715;SDS011;54508;43.238;25.306;2023-10-08T04:22:58;3.30;;;1.93;;
67715;SDS011;54508;43.238;25.306;2023-10-08T04:25:27;2.72;;;2.10;;
67715;SDS011;54508;43.238;25.306;2023-10-08T04:28:00;3.00;;;2.20;;
67715;SDS011;54508;43.238;25.306;2023-10-08T04:30:26;3.35;;;2.33;;
67715;SDS011;54508;43.238;25.306;2023-10-08T04:32:58;2.85;;;2.40;;
67715;SDS011;54508;43.238;25.306;2023-10-08T04:35:31;3.90;;;2.60;;
67715;SDS011;54508;43.238;25.306;2023-10-08T04:37:59;3.85;;;2.40;;
67715;SDS011;54508;43.238;25.306;2023-10-08T04:40:24;3.60;;;2.43;;
67715;SDS011;54508;43.238;25.306;2023-10-08T04:42:50;4.07;;;2.35;;
67715;SDS011;54508;43.238;25.306;2023-10-08T04:45:17;4.18;;;3.30;;
67715;SDS011;54508;43.238;25.306;2023-10-08T04:47:51;3.55;;;2.90;;
67715;SDS011;54508;43.238;25.306;2023-10-08T04:50:16;2.97;;;2.45;;
67715;SDS011;54508;43.238;25.306;2023-10-08T04:52:45;3.42;;;2.70;;
67715;SDS011;54508;43.238;25.306;2023-10-08T04:55:20;2.60;;;2.40;;
67715;SDS011;54508;43.238;25.306;2023-10-08T04:57:53;3.13;;;2.50;;
67715;SDS011;54508;43.238;25.306;2023-10-08T05:00:20;3.58;;;2.40;;
67715;SDS011;54508;43.238;25.306;2023-10-08T05:03:06;4.03;;;2.90;;
67715;SDS011;54508;43.238;25.306;2023-10-08T05:05:39;3.50;;;2.85;;
67715;SDS011;54508;43.238;25.306;2023-10-08T05:08:21;5.72;;;2.78;;
67715;SDS011;54508;43.238;25.306;2023-10-08T05:11:13;2.92;;;2.60;;
67715;SDS011;54508;43.238;25.306;2023-10-08T05:13:58;3.50;;;2.28;;
67715;SDS011;54508;43.238;25.306;2023-10-08T05:16:41;2.95;;;2.42;;
67715;SDS011;54508;43.238;25.306;2023-10-08T05:19:25;2.67;;;2.17;;
67715;SDS011;54508;43.238;25.306;2023-10-08T05:22:12;4.00;;;2.70;;
67715;SDS011;54508;43.238;25.306;2023-10-08T05:24:53;3.10;;;2.63;;
67715;SDS011;54508;43.238;25.306;2023-10-08T05:27:39;3.38;;;2.50;;
67715;SDS011;54508;43.238;25.306;2023-10-08T05:30:19;3.22;;;2.22;;
67715;SDS011;54508;43.238;25.306;2023-10-08T05:32:47;3.05;;;2.28;;
67715;SDS011;54508;43.238;25.306;2023-10-08T05:35:28;3.15;;;2.55;;
67715;SDS011;54508;43.238;25.306;2023-10-08T05:38:23;3.42;;;2.58;;
67715;SDS011;54508;43.238;25.306;2023-10-08T05:40:54;4.78;;;2.40;;
67715;SDS011;54508;43.238;25.306;2023-10-08T05:43:23;4.03;;;2.50;;
67715;SDS011;54508;43.238;25.306;2023-10-08T05:46:18;3.20;;;2.20;;
67715;SDS011;54508;43.238;25.306;2023-10-08T05:48:50;3.85;;;2.60;;
67715;SDS011;54508;43.238;25.306;2023-10-08T05:51:34;2.90;;;2.53;;
67715;SDS011;54508;43.238;25.306;2023-10-08T05:54:13;3.25;;;2.30;;
67715;SDS011;54508;43.238;25.306;2023-10-08T05:56:54;4.30;;;2.80;;
67715;SDS011;54508;43.238;25.306;2023-10-08T05:59:31;3.30;;;2.40;;
67715;SDS011;54508;43.238;25.306;2023-10-08T06:02:05;3.58;;;2.45;;
67715;SDS011;54508;43.238;25.306;2023-10-08T06:04:51;3.85;;;2.78;;
67715;SDS011;54508;43.238;25.306;2023-10-08T06:07:37;3.15;;;2.40;;
67715;SDS011;54508;43.238;25.306;2023-10-08T06:10:31;3.45;;;2.90;;
67715;SDS011;54508;43.238;25.306;2023-10-08T06:15:38;3.45;;;2.97;;
67715;SDS011;54508;43.238;25.306;2023-10-08T06:18:21;3.25;;;2.45;;
67715;SDS011;54508;43.238;25.306;2023-10-08T06:21:06;3.38;;;2.42;;
67715;SDS011;54508;43.238;25.306;2023-10-08T06:23:38;3.40;;;2.78;;
67715;SDS011;54508;43.238;25.306;2023-10-08T06:26:04;3.60;;;2.22;;
67715;SDS011;54508;43.238;25.306;2023-10-08T06:28:35;3.92;;;2.50;;
67715;SDS011;54508;43.238;25.306;2023-10-08T06:31:03;6.57;;;3.00;;
67715;SDS011;54508;43.238;25.306;2023-10-08T06:33:32;4.07;;;2.20;;
67715;SDS011;54508;43.238;25.306;2023-10-08T06:36:01;3.50;;;2.72;;
67715;SDS011;54508;43.238;25.306;2023-10-08T06:38:28;3.97;;;2.70;;
67715;SDS011;54508;43.238;25.306;2023-10-08T06:40:56;3.63;;;2.42;;
67715;SDS011;54508;43.238;25.306;2023-10-08T06:43:25;4.13;;;2.72;;
67715;SDS011;54508;43.238;25.306;2023-10-08T06:45:54;3.65;;;2.50;;
67715;SDS011;54508;43.238;25.306;2023-10-08T06:48:23;3.53;;;2.45;;
67715;SDS011;54508;43.238;25.306;2023-10-08T06:50:49;3.90;;;2.30;;
67715;SDS011;54508;43.238;25.306;2023-10-08T06:53:21;3.10;;;1.77;;
67715;SDS011;54508;43.238;25.306;2023-10-08T06:55:48;3.20;;;2.58;;
67715;SDS011;54508;43.238;25.306;2023-10-08T06:58:19;4.18;;;2.50;;
67715;SDS011;54508;43.238;25.306;2023-10-08T07:00:45;4.73;;;2.50;;
67715;SDS011;54508;43.238;25.306;2023-10-08T07:03:14;3.45;;;2.08;;
67715;SDS011;54508;43.238;25.306;2023-10-08T07:05:49;3.22;;;2.42;;
67715;SDS011;54508;43.238;25.306;2023-10-08T07:08:29;4.35;;;2.75;;
67715;SDS011;54508;43.238;25.306;2023-10-08T07:11:01;4.28;;;2.33;;
67715;SDS011;54508;43.238;25.306;2023-10-08T07:13:31;3.27;;;2.30;;
67715;SDS011;54508;43.238;25.306;2023-10-08T07:15:57;2.78;;;2.13;;
67715;SDS011;54508;43.238;25.306;2023-10-08T07:18:25;2.83;;;2.50;;
67715;SDS011;54508;43.238;25.306;2023-10-08T07:20:51;4.13;;;2.27;;
67715;SDS011;54508;43.238;25.306;2023-10-08T07:23:26;4.65;;;2.40;;
67715;SDS011;54508;43.238;25.306;2023-10-08T07:25:59;3.25;;;2.10;;
67715;SDS011;54508;43.238;25.306;2023-10-08T07:28:43;3.08;;;2.28;;
67715;SDS011;54508;43.238;25.306;2023-10-08T07:31:13;3.28;;;2.15;;
67715;SDS011;54508;43.238;25.306;2023-10-08T07:33:41;3.08;;;2.47;;
67715;SDS011;54508;43.238;25.306;2023-10-08T07:36:10;4.07;;;2.90;;
67715;SDS011;54508;43.238;25.306;2023-10-08T07:38:46;4.18;;;2.72;;
67715;SDS011;54508;43.238;25.306;2023-10-08T07:41:12;3.45;;;2.42;;
67715;SDS011;54508;43.238;25.306;2023-10-08T07:43:40;3.17;;;2.53;;
67715;SDS011;54508;43.238;25.306;2023-10-08T07:46:07;3.97;;;2.55;;
67715;SDS011;54508;43.238;25.306;2023-10-08T07:48:34;6.38;;;2.55;;
67715;SDS011;54508;43.238;25.306;2023-10-08T07:50:59;3.15;;;2.08;;
67715;SDS011;54508;43.238;25.306;2023-10-08T07:53:25;6.43;;;2.40;;
67715;SDS011;54508;43.238;25.306;2023-10-08T07:56:02;4.53;;;2.30;;
67715;SDS011;54508;43.238;25.306;2023-10-08T07:58:34;3.70;;;2.27;;
67715;SDS011;54508;43.238;25.306;2023-10-08T08:01:04;5.05;;;1.95;;
67715;SDS011;54508;43.238;25.306;2023-10-08T08:03:31;3.20;;;2.17;;
67715;SDS011;54508;43.238;25.306;2023-10-08T08:05:57;4.20;;;2.45;;
67715;SDS011;54508;43.238;25.306;2023-10-08T08:08:23;3.25;;;2.10;;
67715;SDS011;54508;43.238;25.306;2023-10-08T08:10:52;5.50;;;2.40;;
67715;SDS011;54508;43.238;25.306;2023-10-08T08:13:23;4.55;;;2.55;;
67715;SDS011;54508;43.238;25.306;2023-10-08T08:15:53;3.50;;;2.30;;
67715;SDS011;54508;43.238;25.306;2023-10-08T08:18:23;4.78;;;2.35;;
67715;SDS011;54508;43.238;25.306;2023-10-08T08:20:57;4.57;;;2.55;;
67715;SDS011;54508;43.238;25.306;2023-10-08T08:23:27;3.43;;;2.03;;
67715;SDS011;54508;43.238;25.306;2023-10-08T08:25:53;4.05;;;2.40;;
67715;SDS011;54508;43.238;25.306;2023-10-08T08:28:31;3.35;;;2.25;;
67715;SDS011;54508;43.238;25.306;2023-10-08T08:31:01;4.68;;;2.10;;
67715;SDS011;54508;43.238;25.306;2023-10-08T08:33:29;4.15;;;2.33;;
67715;SDS011;54508;43.238;25.306;2023-10-08T08:36:15;3.55;;;2.30;;
67715;SDS011;54508;43.238;25.306;2023-10-08T08:38:41;4.55;;;2.40;;
67715;SDS011;54508;43.238;25.306;2023-10-08T08:41:07;2.73;;;1.97;;
67715;SDS011;54508;43.238;25.306;2023-10-08T08:43:36;4.05;;;2.22;;
67715;SDS011;54508;43.238;25.306;2023-10-08T08:46:04;4.57;;;2.00;;
67715;SDS011;54508;43.238;25.306;2023-10-08T08:48:36;3.20;;;2.20;;
67715;SDS011;54508;43.238;25.306;2023-10-08T08:51:01;3.50;;;2.22;;
67715;SDS011;54508;43.238;25.306;2023-10-08T08:53:27;4.87;;;2.40;;
67715;SDS011;54508;43.238;25.306;2023-10-08T08:55:54;3.97;;;2.00;;
67715;SDS011;54508;43.238;25.306;2023-10-08T08:58:21;5.40;;;2.13;;
67715;SDS011;54508;43.238;25.306;2023-10-08T09:00:47;3.20;;;2.20;;
67715;SDS011;54508;43.238;25.306;2023-10-08T09:03:13;3.27;;;2.07;;
67715;SDS011;54508;43.238;25.306;2023-10-08T09:05:38;4.50;;;2.25;;
67715;SDS011;54508;43.238;25.306;2023-10-08T09:08:07;2.85;;;2.05;;
67715;SDS011;54508;43.238;25.306;2023-10-08T09:10:35;3.92;;;1.83;;
67715;SDS011;54508;43.238;25.306;2023-10-08T09:13:03;3.67;;;1.65;;
67715;SDS011;54508;43.238;25.306;2023-10-08T09:15:30;4.40;;;1.80;;
67715;SDS011;54508;43.238;25.306;2023-10-08T09:17:57;2.85;;;1.75;;
67715;SDS011;54508;43.238;25.306;2023-10-08T09:20:26;3.60;;;1.80;;
67715;SDS011;54508;43.238;25.306;2023-10-08T09:23:08;4.03;;;2.03;;
67715;SDS011;54508;43.238;25.306;2023-10-08T09:25:46;3.17;;;1.73;;
67715;SDS011;54508;43.238;25.306;2023-10-08T09:28:27;3.47;;;1.88;;
67715;SDS011;54508;43.238;25.306;2023-10-08T09:30:54;3.47;;;2.20;;
67715;SDS011;54508;43.238;25.306;2023-10-08T09:33:23;3.10;;;2.08;;
67715;SDS011;54508;43.238;25.306;2023-10-08T09:35:49;3.90;;;2.20;;
67715;SDS011;54508;43.238;25.306;2023-10-08T09:38:16;2.97;;;2.00;;
67715;SDS011;54508;43.238;25.306;2023-10-08T09:40:47;3.65;;;2.03;;
67715;SDS011;54508;43.238;25.306;2023-10-08T09:43:13;3.63;;;2.30;;
67715;SDS011;54508;43.238;25.306;2023-10-08T09:45:51;3.40;;;2.05;;
67715;SDS011;54508;43.238;25.306;2023-10-08T09:48:18;3.33;;;2.08;;
67715;SDS011;54508;43.238;25.306;2023-10-08T09:50:45;4.73;;;2.20;;
67715;SDS011;54508;43.238;25.306;2023-10-08T09:53:12;3.25;;;2.30;;
67715;SDS011;54508;43.238;25.306;2023-10-08T09:55:46;3.72;;;1.90;;
67715;SDS011;54508;43.238;25.306;2023-10-08T09:58:19;4.80;;;2.10;;
67715;SDS011;54508;43.238;25.306;2023-10-08T10:00:47;3.83;;;2.30;;
67715;SDS011;54508;43.238;25.306;2023-10-08T10:03:13;3.90;;;1.97;;
67715;SDS011;54508;43.238;25.306;2023-10-08T10:05:39;4.60;;;2.08;;
67715;SDS011;54508;43.238;25.306;2023-10-08T10:08:05;4.40;;;2.07;;
67715;SDS011;54508;43.238;25.306;2023-10-08T10:10:35;3.95;;;2.17;;
67715;SDS011;54508;43.238;25.306;2023-10-08T10:13:08;4.40;;;2.35;;
67715;SDS011;54508;43.238;25.306;2023-10-08T10:15:38;3.78;;;2.20;;
67715;SDS011;54508;43.238;25.306;2023-10-08T10:18:14;3.00;;;1.90;;
67715;SDS011;54508;43.238;25.306;2023-10-08T10:20:50;3.78;;;2.30;;
67715;SDS011;54508;43.238;25.306;2023-10-08T10:23:35;2.70;;;1.52;;
67715;SDS011;54508;43.238;25.306;2023-10-08T10:26:03;3.28;;;2.00;;
67715;SDS011;54508;43.238;25.306;2023-10-08T10:28:29;2.85;;;1.70;;
67715;SDS011;54508;43.238;25.306;2023-10-08T10:30:55;2.23;;;1.60;;
67715;SDS011;54508;43.238;25.306;2023-10-08T10:33:22;3.55;;;2.00;;
67715;SDS011;54508;43.238;25.306;2023-10-08T10:35:54;3.05;;;1.83;;
67715;SDS011;54508;43.238;25.306;2023-10-08T10:38:20;3.23;;;2.17;;
67715;SDS011;54508;43.238;25.306;2023-10-08T10:40:50;4.70;;;2.33;;
67715;SDS011;54508;43.238;25.306;2023-10-08T10:43:25;3.20;;;1.90;;
67715;SDS011;54508;43.238;25.306;2023-10-08T10:46:01;4.30;;;2.28;;
67715;SDS011;54508;43.238;25.306;2023-10-08T10:48:54;2.88;;;2.00;;
67715;SDS011;54508;43.238;25.306;2023-10-08T10:51:43;2.67;;;1.83;;
67715;SDS011;54508;43.238;25.306;2023-10-08T10:54:08;3.17;;;2.00;;
67715;SDS011;54508;43.238;25.306;2023-10-08T10:56:35;2.75;;;1.65;;
67715;SDS011;54508;43.238;25.306;2023-10-08T10:59:12;4.60;;;2.42;;
67715;SDS011;54508;43.238;25.306;2023-10-08T11:01:49;3.92;;;2.08;;
67715;SDS011;54508;43.238;25.306;2023-10-08T11:04:36;2.80;;;2.13;;
67715;SDS011;54508;43.238;25.306;2023-10-08T11:07:20;2.97;;;2.15;;
67715;SDS011;54508;43.238;25.306;2023-10-08T11:09:48;3.38;;;1.90;;
67715;SDS011;54508;43.238;25.306;2023-10-08T11:12:16;2.92;;;1.70;;
67715;SDS011;54508;43.238;25.306;2023-10-08T11:14:57;3.97;;;1.90;;
67715;SDS011;54508;43.238;25.306;2023-10-08T11:17:25;4.00;;;2.33;;
67715;SDS011;54508;43.238;25.306;2023-10-08T11:19:53;5.05;;;2.15;;
67715;SDS011;54508;43.238;25.306;2023-10-08T11:22:19;2.83;;;1.80;;
67715;SDS011;54508;43.238;25.306;2023-10-08T11:24:48;4.55;;;2.03;;
67715;SDS011;54508;43.238;25.306;2023-10-08T11:27:14;2.95;;;1.95;;
67715;SDS011;54508;43.238;25.306;2023-10-08T11:29:42;3.72;;;2.22;;
67715;SDS011;54508;43.238;25.306;2023-10-08T11:32:22;3.35;;;2.10;;
67715;SDS011;54508;43.238;25.306;2023-10-08T11:34:59;5.15;;;1.98;;
67715;SDS011;54508;43.238;25.306;2023-10-08T11:37:28;2.63;;;1.67;;
67715;SDS011;54508;43.238;25.306;2023-10-08T11:39:55;3.42;;;1.92;;
67715;SDS011;54508;43.238;25.306;2023-10-08T11:42:24;3.47;;;1.85;;
67715;SDS011;54508;43.238;25.306;2023-10-08T11:45:09;3.83;;;1.70;;
67715;SDS011;54508;43.238;25.306;2023-10-08T11:47:50;4.88;;;2.00;;
67715;SDS011;54508;43.238;25.306;2023-10-08T11:50:24;4.03;;;2.20;;
67715;SDS011;54508;43.238;25.306;2023-10-08T11:53:00;3.67;;;1.60;;
67715;SDS011;54508;43.238;25.306;2023-10-08T11:55:31;5.10;;;2.00;;
67715;SDS011;54508;43.238;25.306;2023-10-08T11:58:07;4.20;;;1.75;;
67715;SDS011;54508;43.238;25.306;2023-10-08T12:00:39;2.75;;;1.60;;
67715;SDS011;54508;43.238;25.306;2023-10-08T12:03:09;3.78;;;1.90;;
67715;SDS011;54508;43.238;25.306;2023-10-08T12:05:36;3.75;;;1.83;;
67715;SDS011;54508;43.238;25.306;2023-10-08T12:08:04;3.88;;;1.88;;
67715;SDS011;54508;43.238;25.306;2023-10-08T12:10:33;3.33;;;1.90;;
67715;SDS011;54508;43.238;25.306;2023-10-08T12:12:59;3.45;;;2.00;;
67715;SDS011;54508;43.238;25.306;2023-10-08T12:15:25;4.30;;;1.85;;
67715;SDS011;54508;43.238;25.306;2023-10-08T12:18:03;4.38;;;2.03;;
67715;SDS011;54508;43.238;25.306;2023-10-08T12:20:50;5.63;;;1.70;;
67715;SDS011;54508;43.238;25.306;2023-10-08T12:23:15;6.05;;;2.10;;
67715;SDS011;54508;43.238;25.306;2023-10-08T12:25:53;5.22;;;2.30;;
67715;SDS011;54508;43.238;25.306;2023-10-08T12:28:21;4.63;;;2.40;;
67715;SDS011;54508;43.238;25.306;2023-10-08T12:30:48;4.13;;;2.22;;
67715;SDS011;54508;43.238;25.306;2023-10-08T12:33:17;4.03;;;2.03;;
67715;SDS011;54508;43.238;25.306;2023-10-08T12:35:44;4.90;;;2.38;;
67715;SDS011;54508;43.238;25.306;2023-10-08T12:38:12;5.25;;;2.47;;
67715;SDS011;54508;43.238;25.306;2023-10-08T12:40:39;4.05;;;2.70;;
67715;SDS011;54508;43.238;25.306;2023-10-08T12:43:15;4.93;;;2.30;;
67715;SDS011;54508;43.238;25.306;2023-10-08T12:46:03;4.18;;;2.60;;
67715;SDS011;54508;43.238;25.306;2023-10-08T12:48:33;4.53;;;2.40;;
67715;SDS011;54508;43.238;25.306;2023-10-08T12:50:59;5.63;;;2.50;;
67715;SDS011;54508;43.238;25.306;2023-10-08T12:53:26;3.87;;;2.30;;
67715;SDS011;54508;43.238;25.306;2023-10-08T12:55:58;3.50;;;2.22;;
67715;SDS011;54508;43.238;25.306;2023-10-08T12:58:30;4.30;;;2.30;;
67715;SDS011;54508;43.238;25.306;2023-10-08T13:00:59;5.75;;;2.88;;
67715;SDS011;54508;43.238;25.306;2023-10-08T13:03:28;5.47;;;2.83;;
67715;SDS011;54508;43.238;25.306;2023-10-08T13:05:58;4.50;;;2.60;;
67715;SDS011;54508;43.238;25.306;2023-10-08T13:08:30;4.00;;;2.30;;
67715;SDS011;54508;43.238;25.306;2023-10-08T13:10:57;5.68;;;2.92;;
67715;SDS011;54508;43.238;25.306;2023-10-08T13:13:26;3.95;;;2.53;;
67715;SDS011;54508;43.238;25.306;2023-10-08T13:15:52;6.22;;;3.13;;
67715;SDS011;54508;43.238;25.306;2023-10-08T13:18:21;4.87;;;2.70;;
67715;SDS011;54508;43.238;25.306;2023-10-08T13:20:47;6.53;;;2.40;;
67715;SDS011;54508;43.238;25.306;2023-10-08T13:23:13;4.45;;;2.67;;
67715;SDS011;54508;43.238;25.306;2023-10-08T13:25:38;4.43;;;2.70;;
67715;SDS011;54508;43.238;25.306;2023-10-08T13:28:05;5.57;;;2.50;;
67715;SDS011;54508;43.238;25.306;2023-10-08T13:30:32;3.90;;;2.10;;
67715;SDS011;54508;43.238;25.306;2023-10-08T13:32:58;4.17;;;2.30;;
67715;SDS011;54508;43.238;25.306;2023-10-08T13:35:30;5.65;;;2.90;;
67715;SDS011;54508;43.238;25.306;2023-10-08T13:38:01;5.50;;;2.60;;
67715;SDS011;54508;43.238;25.306;2023-10-08T13:40:34;6.10;;;2.70;;
67715;SDS011;54508;43.238;25.306;2023-10-08T13:43:04;8.27;;;2.87;;
67715;SDS011;54508;43.238;25.306;2023-10-08T13:45:30;3.85;;;2.47;;
67715;SDS011;54508;43.238;25.306;2023-10-08T13:47:58;4.75;;;3.08;;
67715;SDS011;54508;43.238;25.306;2023-10-08T13:50:26;5.45;;;3.38;;
67715;SDS011;54508;43.238;25.306;2023-10-08T13:52:55;5.63;;;2.60;;
67715;SDS011;54508;43.238;25.306;2023-10-08T13:55:21;4.60;;;3.00;;
67715;SDS011;54508;43.238;25.306;2023-10-08T13:57:58;5.00;;;2.60;;
67715;SDS011;54508;43.238;25.306;2023-10-08T14:00:28;9.27;;;3.20;;
67715;SDS011;54508;43.238;25.306;2023-10-08T14:03:01;3.93;;;2.43;;
67715;SDS011;54508;43.238;25.306;2023-10-08T14:05:32;3.95;;;2.67;;
67715;SDS011;54508;43.238;25.306;2023-10-08T14:07:59;4.72;;;2.80;;
67715;SDS011;54508;43.238;25.306;2023-10-08T14:10:30;4.68;;;2.67;;
67715;SDS011;54508;43.238;25.306;2023-10-08T14:13:03;5.53;;;2.60;;
67715;SDS011;54508;43.238;25.306;2023-10-08T14:15:37;5.73;;;2.87;;
67715;SDS011;54508;43.238;25.306;2023-10-08T14:18:20;5.80;;;2.72;;
67715;SDS011;54508;43.238;25.306;2023-10-08T14:20:51;6.45;;;3.35;;
67715;SDS011;54508;43.238;25.306;2023-10-08T14:23:22;7.60;;;2.57;;
67715;SDS011;54508;43.238;25.306;2023-10-08T14:25:50;4.68;;;2.78;;
67715;SDS011;54508;43.238;25.306;2023-10-08T14:28:17;6.50;;;3.60;;
67715;SDS011;54508;43.238;25.306;2023-10-08T14:31:01;4.43;;;3.00;;
67715;SDS011;54508;43.238;25.306;2023-10-08T14:33:40;5.88;;;3.00;;
67715;SDS011;54508;43.238;25.306;2023-10-08T14:36:23;7.13;;;3.57;;
67715;SDS011;54508;43.238;25.306;2023-10-08T14:39:07;5.35;;;2.75;;
67715;SDS011;54508;43.238;25.306;2023-10-08T14:41:51;5.03;;;3.08;;
67715;SDS011;54508;43.238;25.306;2023-10-08T14:44:35;7.90;;;2.92;;
67715;SDS011;54508;43.238;25.306;2023-10-08T14:47:04;4.60;;;2.80;;
67715;SDS011;54508;43.238;25.306;2023-10-08T14:49:30;4.90;;;2.83;;
67715;SDS011;54508;43.238;25.306;2023-10-08T14:51:57;4.95;;;2.85;;
67715;SDS011;54508;43.238;25.306;2023-10-08T14:54:23;5.97;;;2.80;;
67715;SDS011;54508;43.238;25.306;2023-10-08T14:56:49;5.40;;;2.57;;
67715;SDS011;54508;43.238;25.306;2023-10-08T14:59:15;5.82;;;2.95;;
67715;SDS011;54508;43.238;25.306;2023-10-08T15:01:40;4.03;;;2.65;;
67715;SDS011;54508;43.238;25.306;2023-10-08T15:04:06;5.70;;;2.70;;